Time;durP1;ratioP1;P1;durP2;ratioP2;P2;SDS_P1;SDS_P2;PMS_P1;PMS_P2;Temp;Humidity;BMP_temperature;BMP_pressure;BME280_temperature;BME280_humidity;BME280_pressure;Samples;Min_cycle;Max_cycle;Signal;HPM_P1;HPM_P2
2022/06/28 00:00:13;;;;;;;10.65;8.550001;;;;;;;17.69;91.6123;95746.55;;;;
2022/06/28 00:01:14;;;;;;;10.65;8.550001;;;;;;;17.69;91.6123;95746.55;;;;
2022/06/28 00:02:15;;;;;;;10.65;8.550001;;;;;;;17.69;91.6123;95746.55;;;;
2022/06/28 00:03:15;;;;;;;10.65;8.550001;;;;;;;17.69;91.6123;95746.55;;;;
2022/06/28 00:04:16;;;;;;;10.65;8.550001;;;;;;;17.69;91.6123;95746.55;;;;
2022/06/28 00:05:16;;;;;;;10.65;8.550001;;;;;;;17.69;91.6123;95746.55;;;;
2022/06/28 00:06:17;;;;;;;10.65;8.550001;;;;;;;17.69;91.6123;95746.55;;;;
2022/06/28 00:07:18;;;;;;;10.65;8.550001;;;;;;;17.69;91.6123;95746.55;;;;
2022/06/28 00:08:19;;;;;;;10.65;8.550001;;;;;;;17.69;91.6123;95746.55;;;;
2022/06/28 00:09:19;;;;;;;9.85;8.9;;;;;;;17.67;91.78027;95755.47;;;;
2022/06/28 00:10:20;;;;;;;9.85;8.9;;;;;;;17.67;91.78027;95755.47;;;;
2022/06/28 00:11:21;;;;;;;9.85;8.9;;;;;;;17.67;91.78027;95755.47;;;;
2022/06/28 00:12:22;;;;;;;9.85;8.9;;;;;;;17.67;91.78027;95755.47;;;;
2022/06/28 00:13:22;;;;;;;9.85;8.9;;;;;;;17.67;91.78027;95755.47;;;;
2022/06/28 00:19:35;;;;;;;9.85;8.9;;;;;;;17.67;91.78027;95755.47;;;;
2022/06/28 00:20:36;;;;;;;10.2;9.299999;;;;;;;17.68;92.05469;95757.09;;;;
2022/06/28 00:21:37;;;;;;;10.2;9.299999;;;;;;;17.68;92.05469;95757.09;;;;
2022/06/28 00:22:37;;;;;;;10.2;9.299999;;;;;;;17.68;92.05469;95757.09;;;;
2022/06/28 00:23:38;;;;;;;10.2;9.299999;;;;;;;17.68;92.05469;95757.09;;;;
2022/06/28 00:24:39;;;;;;;10.2;9.299999;;;;;;;17.68;92.05469;95757.09;;;;
2022/06/28 00:25:40;;;;;;;10.2;9.299999;;;;;;;17.68;92.05469;95757.09;;;;
2022/06/28 00:26:41;;;;;;;10.2;9.299999;;;;;;;17.68;92.05469;95757.09;;;;
2022/06/28 00:27:41;;;;;;;10.2;9.299999;;;;;;;17.68;92.05469;95757.09;;;;
2022/06/28 00:28:42;;;;;;;10.2;9.299999;;;;;;;17.68;92.05469;95757.09;;;;
2022/06/28 00:29:42;;;;;;;10.2;9.299999;;;;;;;17.68;92.05469;95757.09;;;;
2022/06/28 00:30:43;;;;;;;11.1;10.1;;;;;;;17.63;92.16504;95758.75;;;;
2022/06/28 00:31:44;;;;;;;11.1;10.1;;;;;;;17.63;92.16504;95758.75;;;;
2022/06/28 00:32:44;;;;;;;11.1;10.1;;;;;;;17.63;92.16504;95758.75;;;;
2022/06/28 00:33:45;;;;;;;11.1;10.1;;;;;;;17.63;92.16504;95758.75;;;;
2022/06/28 00:34:47;;;;;;;11.1;10.1;;;;;;;17.63;92.16504;95758.75;;;;
2022/06/28 00:35:47;;;;;;;11.1;10.1;;;;;;;17.63;92.16504;95758.75;;;;
2022/06/28 00:36:48;;;;;;;11.1;10.1;;;;;;;17.63;92.16504;95758.75;;;;
2022/06/28 00:37:48;;;;;;;11.1;10.1;;;;;;;17.63;92.16504;95758.75;;;;
2022/06/28 00:38:49;;;;;;;11.1;10.1;;;;;;;17.63;92.16504;95758.75;;;;
2022/06/28 00:39:49;;;;;;;11.1;10.1;;;;;;;17.63;92.16504;95758.75;;;;
2022/06/28 00:40:49;;;;;;;11.1;10.1;;;;;;;17.63;92.16504;95758.75;;;;
2022/06/28 00:41:52;;;;;;;10.65;9.75;;;;;;;17.63;92.48926;95754.33;;;;
2022/06/28 00:42:53;;;;;;;10.65;9.75;;;;;;;17.63;92.48926;95754.33;;;;
2022/06/28 00:43:53;;;;;;;10.65;9.75;;;;;;;17.63;92.48926;95754.33;;;;
2022/06/28 00:44:57;;;;;;;10.65;9.75;;;;;;;17.63;92.48926;95754.33;;;;
2022/06/28 00:45:57;;;;;;;10.65;9.75;;;;;;;17.63;92.48926;95754.33;;;;
2022/06/28 00:46:58;;;;;;;10.65;9.75;;;;;;;17.63;92.48926;95754.33;;;;
2022/06/28 00:47:59;;;;;;;10.65;9.75;;;;;;;17.63;92.48926;95754.33;;;;
2022/06/28 00:49:00;;;;;;;10.65;9.75;;;;;;;17.63;92.48926;95754.33;;;;
2022/06/28 00:50:01;;;;;;;10.65;9.75;;;;;;;17.63;92.48926;95754.33;;;;
2022/06/28 00:51:03;;;;;;;10.65;9.75;;;;;;;17.63;92.48926;95754.33;;;;
2022/06/28 00:52:04;;;;;;;9.4;8.6;;;;;;;17.58;92.58984;95775.12;;;;
2022/06/28 00:53:05;;;;;;;9.4;8.6;;;;;;;17.58;92.58984;95775.12;;;;
2022/06/28 00:54:08;;;;;;;9.4;8.6;;;;;;;17.58;92.58984;95775.12;;;;
2022/06/28 00:55:09;;;;;;;9.4;8.6;;;;;;;17.58;92.58984;95775.12;;;;
2022/06/28 00:56:09;;;;;;;9.4;8.6;;;;;;;17.58;92.58984;95775.12;;;;
2022/06/28 00:57:10;;;;;;;9.4;8.6;;;;;;;17.58;92.58984;95775.12;;;;
2022/06/28 00:58:11;;;;;;;9.4;8.6;;;;;;;17.58;92.58984;95775.12;;;;
2022/06/28 00:59:13;;;;;;;9.4;8.6;;;;;;;17.58;92.58984;95775.12;;;;
2022/06/28 01:00:14;;;;;;;9.4;8.6;;;;;;;17.58;92.58984;95775.12;;;;
2022/06/28 01:01:15;;;;;;;9.4;8.6;;;;;;;17.58;92.58984;95775.12;;;;
2022/06/28 01:02:15;;;;;;;9.4;8.6;;;;;;;17.58;92.58984;95775.12;;;;
2022/06/28 01:03:16;;;;;;;9.900001;9.050001;;;;;;;17.61;92.93262;95776.89;;;;
2022/06/28 01:04:19;;;;;;;9.900001;9.050001;;;;;;;17.61;92.93262;95776.89;;;;
2022/06/28 01:05:19;;;;;;;9.900001;9.050001;;;;;;;17.61;92.93262;95776.89;;;;
2022/06/28 01:06:20;;;;;;;9.900001;9.050001;;;;;;;17.61;92.93262;95776.89;;;;
2022/06/28 01:07:21;;;;;;;9.900001;9.050001;;;;;;;17.61;92.93262;95776.89;;;;
2022/06/28 01:08:21;;;;;;;9.900001;9.050001;;;;;;;17.61;92.93262;95776.89;;;;
2022/06/28 01:09:22;;;;;;;9.900001;9.050001;;;;;;;17.61;92.93262;95776.89;;;;
2022/06/28 01:10:23;;;;;;;9.900001;9.050001;;;;;;;17.61;92.93262;95776.89;;;;
2022/06/28 01:11:28;;;;;;;9.900001;9.050001;;;;;;;17.61;92.93262;95776.89;;;;
2022/06/28 01:12:28;;;;;;;9.900001;9.050001;;;;;;;17.61;92.93262;95776.89;;;;
2022/06/28 01:13:29;;;;;;;10.2;9.2;;;;;;;17.53;92.92578;95790.66;;;;
2022/06/28 01:14:29;;;;;;;10.2;9.2;;;;;;;17.53;92.92578;95790.66;;;;
2022/06/28 01:15:30;;;;;;;10.2;9.2;;;;;;;17.53;92.92578;95790.66;;;;
2022/06/28 01:16:31;;;;;;;10.2;9.2;;;;;;;17.53;92.92578;95790.66;;;;
2022/06/28 01:17:31;;;;;;;10.2;9.2;;;;;;;17.53;92.92578;95790.66;;;;
2022/06/28 01:18:32;;;;;;;10.2;9.2;;;;;;;17.53;92.92578;95790.66;;;;
2022/06/28 01:19:32;;;;;;;10.2;9.2;;;;;;;17.53;92.92578;95790.66;;;;
2022/06/28 01:20:33;;;;;;;10.2;9.2;;;;;;;17.53;92.92578;95790.66;;;;
2022/06/28 01:21:35;;;;;;;10.2;9.2;;;;;;;17.53;92.92578;95790.66;;;;
2022/06/28 01:22:36;;;;;;;10.2;9.2;;;;;;;17.53;92.92578;95790.66;;;;
2022/06/28 01:23:38;;;;;;;10.2;9.2;;;;;;;17.53;92.92578;95790.66;;;;
2022/06/28 01:24:40;;;;;;;10.2;9.2;;;;;;;17.53;92.92578;95790.66;;;;
2022/06/28 01:25:40;;;;;;;10.2;9.2;;;;;;;17.53;92.92578;95790.66;;;;
2022/06/28 01:26:42;;;;;;;10.2;9.2;;;;;;;17.53;92.92578;95790.66;;;;
2022/06/28 01:27:44;;;;;;;10.2;9.2;;;;;;;17.53;92.92578;95790.66;;;;
2022/06/28 01:28:46;;;;;;;10.2;9.2;;;;;;;17.53;92.92578;95790.66;;;;
2022/06/28 01:29:48;;;;;;;10.2;9.2;;;;;;;17.53;92.92578;95790.66;;;;
2022/06/28 01:30:49;;;;;;;10.2;9.2;;;;;;;17.53;92.92578;95790.66;;;;
2022/06/28 01:31:50;;;;;;;10.2;9.2;;;;;;;17.53;92.92578;95790.66;;;;
2022/06/28 01:32:50;;;;;;;10.2;9.2;;;;;;;17.53;92.92578;95790.66;;;;
2022/06/28 01:33:52;;;;;;;10.2;9.2;;;;;;;17.53;92.92578;95790.66;;;;
2022/06/28 01:34:54;;;;;;;10.2;9.299999;;;;;;;17.33;93.19141;95808.87;;;;
2022/06/28 01:35:54;;;;;;;10.2;9.299999;;;;;;;17.33;93.19141;95808.87;;;;
2022/06/28 01:36:55;;;;;;;10.2;9.299999;;;;;;;17.33;93.19141;95808.87;;;;
2022/06/28 01:37:56;;;;;;;10.2;9.299999;;;;;;;17.33;93.19141;95808.87;;;;
2022/06/28 01:38:57;;;;;;;10.2;9.299999;;;;;;;17.33;93.19141;95808.87;;;;
2022/06/28 01:39:58;;;;;;;10.2;9.299999;;;;;;;17.33;93.19141;95808.87;;;;
2022/06/28 01:40:58;;;;;;;10.2;9.299999;;;;;;;17.33;93.19141;95808.87;;;;
2022/06/28 01:42:00;;;;;;;10.2;9.299999;;;;;;;17.33;93.19141;95808.87;;;;
2022/06/28 01:43:00;;;;;;;10.2;9.299999;;;;;;;17.33;93.19141;95808.87;;;;
2022/06/28 01:44:01;;;;;;;10.2;9.299999;;;;;;;17.33;93.19141;95808.87;;;;
2022/06/28 01:45:05;;;;;;;11.05;10.05;;;;;;;17.31;93.57617;95817.25;;;;
2022/06/28 01:46:06;;;;;;;11.05;10.05;;;;;;;17.31;93.57617;95817.25;;;;
2022/06/28 01:47:06;;;;;;;11.05;10.05;;;;;;;17.31;93.57617;95817.25;;;;
2022/06/28 01:48:10;;;;;;;11.05;10.05;;;;;;;17.31;93.57617;95817.25;;;;
2022/06/28 01:49:11;;;;;;;11.05;10.05;;;;;;;17.31;93.57617;95817.25;;;;
2022/06/28 01:50:12;;;;;;;11.05;10.05;;;;;;;17.31;93.57617;95817.25;;;;
2022/06/28 01:51:12;;;;;;;11.05;10.05;;;;;;;17.31;93.57617;95817.25;;;;
2022/06/28 01:52:13;;;;;;;11.05;10.05;;;;;;;17.31;93.57617;95817.25;;;;
2022/06/28 01:53:13;;;;;;;11.05;10.05;;;;;;;17.31;93.57617;95817.25;;;;
2022/06/28 01:54:16;;;;;;;11.05;10.05;;;;;;;17.31;93.57617;95817.25;;;;
2022/06/28 01:55:17;;;;;;;11.05;10.05;;;;;;;17.31;93.57617;95817.25;;;;
2022/06/28 01:56:17;;;;;;;11.2;10.2;;;;;;;17.22;93.69824;95832.98;;;;
2022/06/28 01:57:18;;;;;;;11.2;10.2;;;;;;;17.22;93.69824;95832.98;;;;
2022/06/28 01:58:19;;;;;;;11.2;10.2;;;;;;;17.22;93.69824;95832.98;;;;
2022/06/28 01:59:20;;;;;;;11.2;10.2;;;;;;;17.22;93.69824;95832.98;;;;
2022/06/28 02:00:20;;;;;;;11.2;10.2;;;;;;;17.22;93.69824;95832.98;;;;
2022/06/28 02:01:21;;;;;;;11.2;10.2;;;;;;;17.22;93.69824;95832.98;;;;
2022/06/28 02:02:21;;;;;;;11.2;10.2;;;;;;;17.22;93.69824;95832.98;;;;
2022/06/28 02:03:22;;;;;;;11.2;10.2;;;;;;;17.22;93.69824;95832.98;;;;
2022/06/28 02:04:23;;;;;;;11.2;10.2;;;;;;;17.22;93.69824;95832.98;;;;
2022/06/28 02:05:26;;;;;;;11.2;10.2;;;;;;;17.22;93.69824;95832.98;;;;
2022/06/28 02:06:26;;;;;;;11.2;10.1;;;;;;;17.22;93.99121;95849.02;;;;
2022/06/28 02:07:27;;;;;;;11.2;10.1;;;;;;;17.22;93.99121;95849.02;;;;
2022/06/28 02:08:27;;;;;;;11.2;10.1;;;;;;;17.22;93.99121;95849.02;;;;
2022/06/28 02:09:28;;;;;;;11.2;10.1;;;;;;;17.22;93.99121;95849.02;;;;
2022/06/28 02:10:29;;;;;;;11.2;10.1;;;;;;;17.22;93.99121;95849.02;;;;
2022/06/28 02:11:29;;;;;;;11.2;10.1;;;;;;;17.22;93.99121;95849.02;;;;
2022/06/28 02:12:30;;;;;;;11.2;10.1;;;;;;;17.22;93.99121;95849.02;;;;
2022/06/28 02:13:30;;;;;;;11.2;10.1;;;;;;;17.22;93.99121;95849.02;;;;
2022/06/28 02:14:31;;;;;;;11.2;10.1;;;;;;;17.22;93.99121;95849.02;;;;
2022/06/28 02:15:32;;;;;;;11.2;10.1;;;;;;;17.22;93.99121;95849.02;;;;
2022/06/28 02:16:33;;;;;;;11.2;10.1;;;;;;;17.22;93.99121;95849.02;;;;
2022/06/28 02:17:33;;;;;;;11.55;10.4;;;;;;;17.17;94.08105;95837.72;;;;
2022/06/28 02:18:34;;;;;;;11.55;10.4;;;;;;;17.17;94.08105;95837.72;;;;
2022/06/28 02:19:34;;;;;;;11.55;10.4;;;;;;;17.17;94.08105;95837.72;;;;
2022/06/28 02:20:35;;;;;;;11.55;10.4;;;;;;;17.17;94.08105;95837.72;;;;
2022/06/28 02:21:36;;;;;;;11.55;10.4;;;;;;;17.17;94.08105;95837.72;;;;
2022/06/28 02:22:37;;;;;;;11.55;10.4;;;;;;;17.17;94.08105;95837.72;;;;
2022/06/28 02:23:38;;;;;;;11.55;10.4;;;;;;;17.17;94.08105;95837.72;;;;
2022/06/28 02:24:39;;;;;;;11.55;10.4;;;;;;;17.17;94.08105;95837.72;;;;
2022/06/28 02:25:40;;;;;;;11.55;10.4;;;;;;;17.17;94.08105;95837.72;;;;
2022/06/28 02:26:40;;;;;;;11.55;10.4;;;;;;;17.17;94.08105;95837.72;;;;
2022/06/28 02:27:41;;;;;;;11.55;10.4;;;;;;;17.17;94.08105;95837.72;;;;
2022/06/28 02:28:42;;;;;;;11.75;10.55;;;;;;;17.12;94.28418;95848.82;;;;
2022/06/28 02:29:42;;;;;;;11.75;10.55;;;;;;;17.12;94.28418;95848.82;;;;
2022/06/28 02:30:43;;;;;;;11.75;10.55;;;;;;;17.12;94.28418;95848.82;;;;
2022/06/28 02:31:43;;;;;;;11.75;10.55;;;;;;;17.12;94.28418;95848.82;;;;
2022/06/28 02:32:44;;;;;;;11.75;10.55;;;;;;;17.12;94.28418;95848.82;;;;
2022/06/28 02:33:44;;;;;;;11.75;10.55;;;;;;;17.12;94.28418;95848.82;;;;
2022/06/28 02:40:27;;;;;;;11.8;10.75;;;;;;;17.02;94.3623;95839.68;;;;
2022/06/28 02:41:28;;;;;;;11.8;10.75;;;;;;;17.02;94.3623;95839.68;;;;
2022/06/28 02:42:29;;;;;;;11.8;10.75;;;;;;;17.02;94.3623;95839.68;;;;
2022/06/28 02:43:29;;;;;;;11.8;10.75;;;;;;;17.02;94.3623;95839.68;;;;
2022/06/28 02:44:30;;;;;;;11.8;10.75;;;;;;;17.02;94.3623;95839.68;;;;
2022/06/28 02:45:30;;;;;;;11.8;10.75;;;;;;;17.02;94.3623;95839.68;;;;
2022/06/28 02:46:33;;;;;;;11.8;10.75;;;;;;;17.02;94.3623;95839.68;;;;
2022/06/28 02:47:33;;;;;;;11.8;10.75;;;;;;;17.02;94.3623;95839.68;;;;
2022/06/28 02:48:34;;;;;;;11.8;10.75;;;;;;;17.02;94.3623;95839.68;;;;
2022/06/28 02:49:34;;;;;;;13.5;12.25;;;;;;;17.05;94.76953;95836.56;;;;
2022/06/28 02:50:35;;;;;;;13.5;12.25;;;;;;;17.05;94.76953;95836.56;;;;
2022/06/28 02:51:35;;;;;;;13.5;12.25;;;;;;;17.05;94.76953;95836.56;;;;
2022/06/28 02:52:36;;;;;;;13.5;12.25;;;;;;;17.05;94.76953;95836.56;;;;
2022/06/28 02:53:36;;;;;;;13.5;12.25;;;;;;;17.05;94.76953;95836.56;;;;
2022/06/28 02:54:37;;;;;;;13.5;12.25;;;;;;;17.05;94.76953;95836.56;;;;
2022/06/28 02:55:37;;;;;;;13.5;12.25;;;;;;;17.05;94.76953;95836.56;;;;
2022/06/28 02:56:40;;;;;;;13.5;12.25;;;;;;;17.05;94.76953;95836.56;;;;
2022/06/28 02:57:40;;;;;;;13.5;12.25;;;;;;;17.05;94.76953;95836.56;;;;
2022/06/28 02:58:41;;;;;;;13.5;12.25;;;;;;;17.05;94.76953;95836.56;;;;
2022/06/28 02:59:42;;;;;;;13.5;12.25;;;;;;;17.05;94.76953;95836.56;;;;
2022/06/28 03:00:42;;;;;;;13.95;12.3;;;;;;;17.06;94.81738;95845.26;;;;
2022/06/28 03:01:43;;;;;;;13.95;12.3;;;;;;;17.06;94.81738;95845.26;;;;
2022/06/28 03:02:43;;;;;;;13.95;12.3;;;;;;;17.06;94.81738;95845.26;;;;
2022/06/28 03:03:45;;;;;;;13.95;12.3;;;;;;;17.06;94.81738;95845.26;;;;
2022/06/28 03:04:46;;;;;;;13.95;12.3;;;;;;;17.06;94.81738;95845.26;;;;
2022/06/28 03:05:46;;;;;;;13.95;12.3;;;;;;;17.06;94.81738;95845.26;;;;
2022/06/28 03:06:47;;;;;;;13.95;12.3;;;;;;;17.06;94.81738;95845.26;;;;
2022/06/28 03:07:48;;;;;;;13.95;12.3;;;;;;;17.06;94.81738;95845.26;;;;
2022/06/28 03:08:49;;;;;;;13.95;12.3;;;;;;;17.06;94.81738;95845.26;;;;
2022/06/28 03:09:49;;;;;;;13.95;12.3;;;;;;;17.06;94.81738;95845.26;;;;
2022/06/28 03:10:50;;;;;;;14.45;13.05;;;;;;;17.12;95.07617;95848.82;;;;
2022/06/28 03:11:50;;;;;;;14.45;13.05;;;;;;;17.12;95.07617;95848.82;;;;
2022/06/28 03:12:51;;;;;;;14.45;13.05;;;;;;;17.12;95.07617;95848.82;;;;
2022/06/28 03:13:51;;;;;;;14.45;13.05;;;;;;;17.12;95.07617;95848.82;;;;
2022/06/28 03:14:52;;;;;;;14.45;13.05;;;;;;;17.12;95.07617;95848.82;;;;
2022/06/28 03:15:52;;;;;;;14.45;13.05;;;;;;;17.12;95.07617;95848.82;;;;
2022/06/28 03:16:53;;;;;;;14.45;13.05;;;;;;;17.12;95.07617;95848.82;;;;
2022/06/28 03:17:53;;;;;;;14.45;13.05;;;;;;;17.12;95.07617;95848.82;;;;
2022/06/28 03:18:54;;;;;;;14.45;13.05;;;;;;;17.12;95.07617;95848.82;;;;
2022/06/28 03:19:54;;;;;;;14.45;13.05;;;;;;;17.12;95.07617;95848.82;;;;
2022/06/28 03:20:55;;;;;;;14.45;13.05;;;;;;;17.12;95.07617;95848.82;;;;
2022/06/28 03:21:56;;;;;;;15.35;13.8;;;;;;;17.1;95.01855;95850.53;;;;
2022/06/28 03:22:56;;;;;;;15.35;13.8;;;;;;;17.1;95.01855;95850.53;;;;
2022/06/28 03:23:57;;;;;;;15.35;13.8;;;;;;;17.1;95.01855;95850.53;;;;
2022/06/28 03:24:57;;;;;;;15.35;13.8;;;;;;;17.1;95.01855;95850.53;;;;
2022/06/28 03:25:58;;;;;;;15.35;13.8;;;;;;;17.1;95.01855;95850.53;;;;
2022/06/28 03:26:58;;;;;;;15.35;13.8;;;;;;;17.1;95.01855;95850.53;;;;
2022/06/28 03:27:59;;;;;;;15.35;13.8;;;;;;;17.1;95.01855;95850.53;;;;
2022/06/28 03:28:59;;;;;;;15.35;13.8;;;;;;;17.1;95.01855;95850.53;;;;
2022/06/28 03:30:01;;;;;;;15.35;13.8;;;;;;;17.1;95.01855;95850.53;;;;
2022/06/28 03:31:01;;;;;;;15.35;13.8;;;;;;;17.1;95.01855;95850.53;;;;
2022/06/28 03:32:02;;;;;;;15.6;14.05;;;;;;;17.1;95.23535;95852.28;;;;
2022/06/28 03:33:03;;;;;;;15.6;14.05;;;;;;;17.1;95.23535;95852.28;;;;
2022/06/28 03:34:04;;;;;;;15.6;14.05;;;;;;;17.1;95.23535;95852.28;;;;
2022/06/28 03:35:05;;;;;;;15.6;14.05;;;;;;;17.1;95.23535;95852.28;;;;
2022/06/28 03:36:06;;;;;;;15.6;14.05;;;;;;;17.1;95.23535;95852.28;;;;
2022/06/28 03:37:07;;;;;;;15.6;14.05;;;;;;;17.1;95.23535;95852.28;;;;
2022/06/28 03:38:07;;;;;;;15.6;14.05;;;;;;;17.1;95.23535;95852.28;;;;
2022/06/28 03:39:07;;;;;;;15.6;14.05;;;;;;;17.1;95.23535;95852.28;;;;
2022/06/28 03:40:08;;;;;;;15.6;14.05;;;;;;;17.1;95.23535;95852.28;;;;
2022/06/28 03:41:09;;;;;;;15.6;14.05;;;;;;;17.1;95.23535;95852.28;;;;
2022/06/28 03:42:10;;;;;;;15.6;14.05;;;;;;;17.1;95.23535;95852.28;;;;
2022/06/28 03:43:11;;;;;;;15.05;13.45;;;;;;;17.05;95.19238;95855.77;;;;
2022/06/28 03:44:11;;;;;;;15.05;13.45;;;;;;;17.05;95.19238;95855.77;;;;
2022/06/28 03:45:12;;;;;;;15.05;13.45;;;;;;;17.05;95.19238;95855.77;;;;
2022/06/28 03:46:12;;;;;;;15.05;13.45;;;;;;;17.05;95.19238;95855.77;;;;
2022/06/28 03:47:13;;;;;;;15.05;13.45;;;;;;;17.05;95.19238;95855.77;;;;
2022/06/28 03:48:14;;;;;;;15.05;13.45;;;;;;;17.05;95.19238;95855.77;;;;
2022/06/28 03:49:14;;;;;;;15.05;13.45;;;;;;;17.05;95.19238;95855.77;;;;
2022/06/28 03:50:14;;;;;;;15.05;13.45;;;;;;;17.05;95.19238;95855.77;;;;
2022/06/28 03:51:15;;;;;;;15.05;13.45;;;;;;;17.05;95.19238;95855.77;;;;
2022/06/28 03:52:16;;;;;;;15.05;13.45;;;;;;;17.05;95.19238;95855.77;;;;
2022/06/28 03:53:17;;;;;;;14.15;12.75;;;;;;;17.07;95.36133;95852.21;;;;
2022/06/28 03:54:17;;;;;;;14.15;12.75;;;;;;;17.07;95.36133;95852.21;;;;
2022/06/28 03:55:18;;;;;;;14.15;12.75;;;;;;;17.07;95.36133;95852.21;;;;
2022/06/28 03:56:19;;;;;;;14.15;12.75;;;;;;;17.07;95.36133;95852.21;;;;
2022/06/28 03:57:19;;;;;;;14.15;12.75;;;;;;;17.07;95.36133;95852.21;;;;
2022/06/28 03:58:20;;;;;;;14.15;12.75;;;;;;;17.07;95.36133;95852.21;;;;
2022/06/28 03:59:20;;;;;;;14.15;12.75;;;;;;;17.07;95.36133;95852.21;;;;
2022/06/28 04:00:21;;;;;;;14.15;12.75;;;;;;;17.07;95.36133;95852.21;;;;
2022/06/28 04:01:21;;;;;;;14.15;12.75;;;;;;;17.07;95.36133;95852.21;;;;
2022/06/28 04:02:22;;;;;;;14.15;12.75;;;;;;;17.07;95.36133;95852.21;;;;
2022/06/28 04:03:23;;;;;;;14.15;12.75;;;;;;;17.07;95.36133;95852.21;;;;
2022/06/28 04:04:23;;;;;;;14.55;13.15;;;;;;;17.03;95.25586;95849.75;;;;
2022/06/28 04:05:24;;;;;;;14.55;13.15;;;;;;;17.03;95.25586;95849.75;;;;
2022/06/28 04:06:25;;;;;;;14.55;13.15;;;;;;;17.03;95.25586;95849.75;;;;
2022/06/28 04:07:25;;;;;;;14.55;13.15;;;;;;;17.03;95.25586;95849.75;;;;
2022/06/28 04:08:26;;;;;;;14.55;13.15;;;;;;;17.03;95.25586;95849.75;;;;
2022/06/28 04:09:26;;;;;;;14.55;13.15;;;;;;;17.03;95.25586;95849.75;;;;
2022/06/28 04:10:27;;;;;;;14.55;13.15;;;;;;;17.03;95.25586;95849.75;;;;
2022/06/28 04:11:28;;;;;;;14.55;13.15;;;;;;;17.03;95.25586;95849.75;;;;
2022/06/28 04:12:28;;;;;;;14.55;13.15;;;;;;;17.03;95.25586;95849.75;;;;
2022/06/28 04:13:29;;;;;;;14.55;13.15;;;;;;;17.03;95.25586;95849.75;;;;
2022/06/28 04:14:29;;;;;;;14.55;13.15;;;;;;;17.03;95.25586;95849.75;;;;
2022/06/28 04:15:30;;;;;;;14.75;13.25;;;;;;;17.08;95.55664;95853.03;;;;
2022/06/28 04:16:32;;;;;;;14.75;13.25;;;;;;;17.08;95.55664;95853.03;;;;
2022/06/28 04:17:32;;;;;;;14.75;13.25;;;;;;;17.08;95.55664;95853.03;;;;
2022/06/28 04:18:33;;;;;;;14.75;13.25;;;;;;;17.08;95.55664;95853.03;;;;
2022/06/28 04:19:34;;;;;;;14.75;13.25;;;;;;;17.08;95.55664;95853.03;;;;
2022/06/28 04:20:36;;;;;;;14.75;13.25;;;;;;;17.08;95.55664;95853.03;;;;
2022/06/28 04:21:36;;;;;;;14.75;13.25;;;;;;;17.08;95.55664;95853.03;;;;
2022/06/28 04:22:37;;;;;;;14.75;13.25;;;;;;;17.08;95.55664;95853.03;;;;
2022/06/28 04:23:37;;;;;;;14.75;13.25;;;;;;;17.08;95.55664;95853.03;;;;
2022/06/28 04:24:38;;;;;;;14.75;13.25;;;;;;;17.08;95.55664;95853.03;;;;
2022/06/28 04:25:38;;;;;;;14.8;13.3;;;;;;;17.21;95.53125;95848.33;;;;
2022/06/28 04:26:39;;;;;;;14.8;13.3;;;;;;;17.21;95.53125;95848.33;;;;
2022/06/28 04:27:39;;;;;;;14.8;13.3;;;;;;;17.21;95.53125;95848.33;;;;
2022/06/28 04:28:40;;;;;;;14.8;13.3;;;;;;;17.21;95.53125;95848.33;;;;
2022/06/28 04:29:41;;;;;;;14.8;13.3;;;;;;;17.21;95.53125;95848.33;;;;
2022/06/28 04:30:42;;;;;;;14.8;13.3;;;;;;;17.21;95.53125;95848.33;;;;
2022/06/28 04:31:42;;;;;;;14.8;13.3;;;;;;;17.21;95.53125;95848.33;;;;
2022/06/28 04:32:43;;;;;;;14.8;13.3;;;;;;;17.21;95.53125;95848.33;;;;
2022/06/28 04:33:43;;;;;;;14.8;13.3;;;;;;;17.21;95.53125;95848.33;;;;
2022/06/28 04:34:44;;;;;;;14.8;13.3;;;;;;;17.21;95.53125;95848.33;;;;
2022/06/28 04:35:45;;;;;;;14.8;13.3;;;;;;;17.21;95.53125;95848.33;;;;
2022/06/28 04:36:45;;;;;;;14.3;13;;;;;;;17.59;95.63281;95856.16;;;;
2022/06/28 04:37:46;;;;;;;14.3;13;;;;;;;17.59;95.63281;95856.16;;;;
2022/06/28 04:38:46;;;;;;;14.3;13;;;;;;;17.59;95.63281;95856.16;;;;
2022/06/28 04:39:47;;;;;;;14.3;13;;;;;;;17.59;95.63281;95856.16;;;;
2022/06/28 04:40:47;;;;;;;14.3;13;;;;;;;17.59;95.63281;95856.16;;;;
2022/06/28 04:41:48;;;;;;;14.3;13;;;;;;;17.59;95.63281;95856.16;;;;
2022/06/28 04:42:48;;;;;;;14.3;13;;;;;;;17.59;95.63281;95856.16;;;;
2022/06/28 04:43:49;;;;;;;14.3;13;;;;;;;17.59;95.63281;95856.16;;;;
2022/06/28 04:44:50;;;;;;;14.3;13;;;;;;;17.59;95.63281;95856.16;;;;
2022/06/28 04:45:50;;;;;;;14.3;13;;;;;;;17.59;95.63281;95856.16;;;;
2022/06/28 04:46:51;;;;;;;14.45;13.05;;;;;;;17.94;95.52441;95860.75;;;;
2022/06/28 04:47:51;;;;;;;14.45;13.05;;;;;;;17.94;95.52441;95860.75;;;;
2022/06/28 04:48:52;;;;;;;14.45;13.05;;;;;;;17.94;95.52441;95860.75;;;;
2022/06/28 04:49:52;;;;;;;14.45;13.05;;;;;;;17.94;95.52441;95860.75;;;;
2022/06/28 04:50:53;;;;;;;14.45;13.05;;;;;;;17.94;95.52441;95860.75;;;;
2022/06/28 04:51:53;;;;;;;14.45;13.05;;;;;;;17.94;95.52441;95860.75;;;;
2022/06/28 04:52:54;;;;;;;14.45;13.05;;;;;;;17.94;95.52441;95860.75;;;;
2022/06/28 04:53:54;;;;;;;14.45;13.05;;;;;;;17.94;95.52441;95860.75;;;;
2022/06/28 04:54:54;;;;;;;14.45;13.05;;;;;;;17.94;95.52441;95860.75;;;;
2022/06/28 04:55:55;;;;;;;14.45;13.05;;;;;;;17.94;95.52441;95860.75;;;;
2022/06/28 04:56:55;;;;;;;14.45;13.05;;;;;;;17.94;95.52441;95860.75;;;;
2022/06/28 04:57:56;;;;;;;15.3;13.75;;;;;;;18.17;95.43359;95853.89;;;;
2022/06/28 04:58:56;;;;;;;15.3;13.75;;;;;;;18.17;95.43359;95853.89;;;;
2022/06/28 04:59:57;;;;;;;15.3;13.75;;;;;;;18.17;95.43359;95853.89;;;;
2022/06/28 05:00:57;;;;;;;15.3;13.75;;;;;;;18.17;95.43359;95853.89;;;;
2022/06/28 05:01:58;;;;;;;15.3;13.75;;;;;;;18.17;95.43359;95853.89;;;;
2022/06/28 05:02:58;;;;;;;15.3;13.75;;;;;;;18.17;95.43359;95853.89;;;;
2022/06/28 05:03:59;;;;;;;15.3;13.75;;;;;;;18.17;95.43359;95853.89;;;;
2022/06/28 05:04:59;;;;;;;15.3;13.75;;;;;;;18.17;95.43359;95853.89;;;;
2022/06/28 05:06:00;;;;;;;15.3;13.75;;;;;;;18.17;95.43359;95853.89;;;;
2022/06/28 05:07:00;;;;;;;15.3;13.75;;;;;;;18.17;95.43359;95853.89;;;;
2022/06/28 05:08:01;;;;;;;13.45;12.25;;;;;;;18.37;95.27734;95837.7;;;;
2022/06/28 05:09:02;;;;;;;13.45;12.25;;;;;;;18.37;95.27734;95837.7;;;;
2022/06/28 05:10:03;;;;;;;13.45;12.25;;;;;;;18.37;95.27734;95837.7;;;;
2022/06/28 05:11:06;;;;;;;13.45;12.25;;;;;;;18.37;95.27734;95837.7;;;;
2022/06/28 05:12:07;;;;;;;13.45;12.25;;;;;;;18.37;95.27734;95837.7;;;;
2022/06/28 05:13:08;;;;;;;13.45;12.25;;;;;;;18.37;95.27734;95837.7;;;;
2022/06/28 05:14:09;;;;;;;13.45;12.25;;;;;;;18.37;95.27734;95837.7;;;;
2022/06/28 05:15:09;;;;;;;13.45;12.25;;;;;;;18.37;95.27734;95837.7;;;;
2022/06/28 05:16:10;;;;;;;13.45;12.25;;;;;;;18.37;95.27734;95837.7;;;;
2022/06/28 05:17:11;;;;;;;13.45;12.25;;;;;;;18.37;95.27734;95837.7;;;;
2022/06/28 05:18:11;;;;;;;13.45;12.25;;;;;;;18.37;95.27734;95837.7;;;;
2022/06/28 05:19:12;;;;;;;16.8;15.1;;;;;;;18.62;94.96191;95819.75;;;;
2022/06/28 05:20:12;;;;;;;16.8;15.1;;;;;;;18.62;94.96191;95819.75;;;;
2022/06/28 05:21:13;;;;;;;16.8;15.1;;;;;;;18.62;94.96191;95819.75;;;;
2022/06/28 05:22:14;;;;;;;16.8;15.1;;;;;;;18.62;94.96191;95819.75;;;;
2022/06/28 05:23:14;;;;;;;16.8;15.1;;;;;;;18.62;94.96191;95819.75;;;;
2022/06/28 05:24:15;;;;;;;16.8;15.1;;;;;;;18.62;94.96191;95819.75;;;;
2022/06/28 05:25:16;;;;;;;16.8;15.1;;;;;;;18.62;94.96191;95819.75;;;;
2022/06/28 05:26:16;;;;;;;16.8;15.1;;;;;;;18.62;94.96191;95819.75;;;;
2022/06/28 05:27:17;;;;;;;16.8;15.1;;;;;;;18.62;94.96191;95819.75;;;;
2022/06/28 05:28:17;;;;;;;16.8;15.1;;;;;;;18.62;94.96191;95819.75;;;;
2022/06/28 05:29:18;;;;;;;16.8;15.1;;;;;;;18.62;94.96191;95819.75;;;;
2022/06/28 05:30:18;;;;;;;13.7;12.3;;;;;;;18.83;94.74609;95793.5;;;;
2022/06/28 05:31:19;;;;;;;13.7;12.3;;;;;;;18.83;94.74609;95793.5;;;;
2022/06/28 05:32:20;;;;;;;13.7;12.3;;;;;;;18.83;94.74609;95793.5;;;;
2022/06/28 05:33:20;;;;;;;13.7;12.3;;;;;;;18.83;94.74609;95793.5;;;;
2022/06/28 05:34:21;;;;;;;13.7;12.3;;;;;;;18.83;94.74609;95793.5;;;;
2022/06/28 05:35:22;;;;;;;13.7;12.3;;;;;;;18.83;94.74609;95793.5;;;;
2022/06/28 05:36:22;;;;;;;13.7;12.3;;;;;;;18.83;94.74609;95793.5;;;;
2022/06/28 05:37:23;;;;;;;13.7;12.3;;;;;;;18.83;94.74609;95793.5;;;;
2022/06/28 05:38:23;;;;;;;13.7;12.3;;;;;;;18.83;94.74609;95793.5;;;;
2022/06/28 05:39:24;;;;;;;13.7;12.3;;;;;;;18.83;94.74609;95793.5;;;;
2022/06/28 05:40:24;;;;;;;14.1;12.7;;;;;;;19.54;94.01074;95781.64;;;;
2022/06/28 05:41:25;;;;;;;14.1;12.7;;;;;;;19.54;94.01074;95781.64;;;;
2022/06/28 05:42:25;;;;;;;14.1;12.7;;;;;;;19.54;94.01074;95781.64;;;;
2022/06/28 05:43:26;;;;;;;14.1;12.7;;;;;;;19.54;94.01074;95781.64;;;;
2022/06/28 05:44:27;;;;;;;14.1;12.7;;;;;;;19.54;94.01074;95781.64;;;;
2022/06/28 05:45:28;;;;;;;14.1;12.7;;;;;;;19.54;94.01074;95781.64;;;;
2022/06/28 05:46:28;;;;;;;14.1;12.7;;;;;;;19.54;94.01074;95781.64;;;;
2022/06/28 05:47:29;;;;;;;14.1;12.7;;;;;;;19.54;94.01074;95781.64;;;;
2022/06/28 05:48:29;;;;;;;14.1;12.7;;;;;;;19.54;94.01074;95781.64;;;;